Warning: Javascript must be enabled to use all the features on this page!


Page Loading - Please Wait...

* We've detected you're using a mobile device. Find our Next Generation Station Page here.
Click to hideNews Bulletins

Peak Streamflow for the Nation

USGS 05594800 SILVER CREEK NEAR FREEBURG, IL

St. Clair County, Illinois
Hydrologic Unit Code 07140204
Latitude  38°24'22", Longitude  89°52'26" NAD83
Drainage area 464  square miles
Gage datum 380.77 feet above NAVD88
Output formats
Table
Graph
Tab-separated file
peakfq (watstore) format
Reselect output format
Water
Year
Date Gage
Height
(feet)
Stream-
flow
(cfs)
1971 1971-02-11 8.60 960
1972 1971-12-18 17.26 5,230
1973 1973-03-11 18.28 6,150
1974 1974-01-22 18.89 6,980
1975 1975-04-27 19.54 7,750
1976 1976-03-31 7.22 932
1977 1977-03-31 17.04 4,920
1978 1978-03-17 17.75 5,640
1979 1979-04-14 20.70 9,200
1980 1980-04-02 10.87 1,600
1981 1981-07-23 11.09 1,650
1982 1982-02-23 18.90 6,980
1983 1982-12-27 19.66 7,890
1984 1983-12-14 17.40 5,280
1985 1985-02-25 19.26 7,410
1986 1986-02-03 20.21 8,570
1987 1986-10-07 11.24 1,690
1988 1988-02-04 18.47 6,450
1989 1989-03-22 16.76 4,690
1990 1990-05-17 22.10 11,000
1991 1991-01-03 16.43 4,390
1992 1992-04-18 8.87 1,330
1993 1993-09-24 17.07 4,800
1994 1994-04-14 19.63 7,860
1995 1995-05-19 25.38 15,300
1996 1996-04-30 22.39 11,300
1997 1997-02-28 16.54 4,490
1998 1998-03-21 16.91 4,830
1999 1999-02-10 19.00 7,100
2000 2000-06-28 17.97 5,380
2001 2001-02-12 12.72 2,320
2002 2002-05-11 19.54 7,750
2003 2003-06-13 17.81 5,730
2004 2004-05-29 17.61 5,590
2005 2005-01-07 22.87 11,900
2006 2006-03-14 10.76 2,160
2007 2007-01-16 13.30 2,930
2008 2008-03-20 18.84 8,920
2009 2009-02-14 16.24 4,420
2010 2009-10-31 19.15 7,330
2011 2011-04-27 19.17 7,350
2012 2012-04-18 11.50 2,320
2013 2013-04-21 21.30 9,960
2014 2014-04-06 15.70 4,340
2015 2015-06-21 18.17 6,190
2016 2015-12-30 26.00 19,600
2017 2017-05-02 22.61 11,500
2018 2018-03-31 17.18 5,690
2019 2019-08-16 17.13 5,820
2020 2020-01-13 20.51 8,970
2021 2021-03-19 16.20 4,390